sensor_id;sensor_type;location;lat;lon;timestamp;pressure;altitude;pressure_sealevel;temperature;humidity
71457;BME280;59263;48.160;11.752;2023-05-24T00:09:02;96009.47;;;13.94;100.00
71457;BME280;59263;48.160;11.752;2023-05-24T00:11:27;96012.56;;;13.89;100.00
71457;BME280;59263;48.160;11.752;2023-05-24T00:13:53;96012.72;;;13.88;100.00
71457;BME280;59263;48.160;11.752;2023-05-24T00:16:18;95996.09;;;13.72;100.00
71457;BME280;59263;48.160;11.752;2023-05-24T00:18:43;95988.28;;;13.72;100.00
71457;BME280;59263;48.160;11.752;2023-05-24T00:21:11;96003.59;;;13.84;100.00
71457;BME280;59263;48.160;11.752;2023-05-24T00:23:37;96005.53;;;13.82;100.00
71457;BME280;59263;48.160;11.752;2023-05-24T00:26:03;96003.72;;;13.74;100.00
71457;BME280;59263;48.160;11.752;2023-05-24T00:28:28;95991.50;;;13.66;100.00
71457;BME280;59263;48.160;11.752;2023-05-24T00:30:58;95995.44;;;13.78;100.00
71457;BME280;59263;48.160;11.752;2023-05-24T00:33:23;95994.50;;;13.88;100.00
71457;BME280;59263;48.160;11.752;2023-05-24T00:35:49;95995.13;;;13.73;100.00
71457;BME280;59263;48.160;11.752;2023-05-24T00:38:26;95990.81;;;13.56;100.00
71457;BME280;59263;48.160;11.752;2023-05-24T00:40:55;96000.00;;;13.76;100.00
71457;BME280;59263;48.160;11.752;2023-05-24T00:43:20;95983.09;;;13.72;100.00
71457;BME280;59263;48.160;11.752;2023-05-24T00:45:46;95970.53;;;13.60;100.00
71457;BME280;59263;48.160;11.752;2023-05-24T00:48:12;95980.31;;;13.66;100.00
71457;BME280;59263;48.160;11.752;2023-05-24T00:50:38;95989.94;;;13.82;100.00
71457;BME280;59263;48.160;11.752;2023-05-24T00:53:04;95991.41;;;13.76;100.00
71457;BME280;59263;48.160;11.752;2023-05-24T00:55:31;95978.13;;;13.53;100.00
71457;BME280;59263;48.160;11.752;2023-05-24T00:57:58;95986.94;;;13.60;100.00
71457;BME280;59263;48.160;11.752;2023-05-24T01:00:23;95996.72;;;13.66;100.00
71457;BME280;59263;48.160;11.752;2023-05-24T01:02:49;95977.31;;;13.52;100.00
71457;BME280;59263;48.160;11.752;2023-05-24T01:05:16;95987.25;;;13.57;100.00
71457;BME280;59263;48.160;11.752;2023-05-24T01:13:23;95987.75;;;13.61;100.00
71457;BME280;59263;48.160;11.752;2023-05-24T01:16:04;95984.00;;;13.55;100.00
71457;BME280;59263;48.160;11.752;2023-05-24T01:18:33;95988.47;;;13.37;100.00
71457;BME280;59263;48.160;11.752;2023-05-24T01:26:23;95987.31;;;13.31;100.00
71457;BME280;59263;48.160;11.752;2023-05-24T01:28:55;95958.06;;;13.29;100.00
71457;BME280;59263;48.160;11.752;2023-05-24T01:31:21;95961.69;;;13.44;100.00
71457;BME280;59263;48.160;11.752;2023-05-24T01:33:47;95981.72;;;13.60;100.00
71457;BME280;59263;48.160;11.752;2023-05-24T01:36:12;95966.78;;;13.54;100.00
71457;BME280;59263;48.160;11.752;2023-05-24T01:38:38;95977.34;;;13.61;100.00
71457;BME280;59263;48.160;11.752;2023-05-24T01:41:33;95972.13;;;13.52;100.00
71457;BME280;59263;48.160;11.752;2023-05-24T01:44:11;95979.41;;;13.49;100.00
71457;BME280;59263;48.160;11.752;2023-05-24T01:46:39;95979.41;;;13.49;100.00
71457;BME280;59263;48.160;11.752;2023-05-24T01:51:50;95983.78;;;13.40;100.00
71457;BME280;59263;48.160;11.752;2023-05-24T01:54:22;95985.53;;;13.31;100.00
71457;BME280;59263;48.160;11.752;2023-05-24T01:56:51;95979.63;;;13.21;100.00
71457;BME280;59263;48.160;11.752;2023-05-24T01:59:17;95986.41;;;13.14;100.00
71457;BME280;59263;48.160;11.752;2023-05-24T02:01:43;95997.22;;;13.27;100.00
71457;BME280;59263;48.160;11.752;2023-05-24T02:04:09;95983.25;;;13.28;100.00
71457;BME280;59263;48.160;11.752;2023-05-24T02:06:35;95986.72;;;13.19;100.00
71457;BME280;59263;48.160;11.752;2023-05-24T02:09:00;95973.09;;;13.17;100.00
71457;BME280;59263;48.160;11.752;2023-05-24T02:11:25;95982.50;;;13.18;100.00
71457;BME280;59263;48.160;11.752;2023-05-24T02:13:51;95978.06;;;13.28;100.00
71457;BME280;59263;48.160;11.752;2023-05-24T02:16:16;95988.91;;;13.24;100.00
71457;BME280;59263;48.160;11.752;2023-05-24T02:18:42;95979.69;;;13.38;100.00
71457;BME280;59263;48.160;11.752;2023-05-24T02:21:08;95973.88;;;13.36;100.00
71457;BME280;59263;48.160;11.752;2023-05-24T02:23:34;95967.72;;;13.45;100.00
71457;BME280;59263;48.160;11.752;2023-05-24T02:25:59;95976.81;;;13.49;100.00
71457;BME280;59263;48.160;11.752;2023-05-24T02:28:25;95987.50;;;13.38;100.00
71457;BME280;59263;48.160;11.752;2023-05-24T02:30:50;95968.25;;;13.22;100.00
71457;BME280;59263;48.160;11.752;2023-05-24T02:33:16;95987.13;;;13.24;100.00
71457;BME280;59263;48.160;11.752;2023-05-24T02:35:41;95974.88;;;13.43;100.00
71457;BME280;59263;48.160;11.752;2023-05-24T02:38:06;95970.03;;;13.22;100.00
71457;BME280;59263;48.160;11.752;2023-05-24T02:40:32;95984.81;;;13.21;100.00
71457;BME280;59263;48.160;11.752;2023-05-24T02:42:57;95925.34;;;13.18;100.00
71457;BME280;59263;48.160;11.752;2023-05-24T02:45:22;95970.00;;;13.48;100.00
71457;BME280;59263;48.160;11.752;2023-05-24T02:47:47;95958.47;;;13.16;100.00
71457;BME280;59263;48.160;11.752;2023-05-24T02:50:13;95965.38;;;13.25;100.00
71457;BME280;59263;48.160;11.752;2023-05-24T02:52:38;95962.97;;;13.32;100.00
71457;BME280;59263;48.160;11.752;2023-05-24T02:55:04;95937.06;;;13.22;100.00
71457;BME280;59263;48.160;11.752;2023-05-24T02:57:30;95962.59;;;13.27;100.00
71457;BME280;59263;48.160;11.752;2023-05-24T02:59:58;95976.44;;;13.27;100.00
71457;BME280;59263;48.160;11.752;2023-05-24T03:02:24;95976.75;;;13.24;100.00
71457;BME280;59263;48.160;11.752;2023-05-24T03:04:49;95966.22;;;13.08;100.00
71457;BME280;59263;48.160;11.752;2023-05-24T03:07:15;95968.25;;;13.22;100.00
71457;BME280;59263;48.160;11.752;2023-05-24T03:09:41;95958.06;;;13.29;100.00
71457;BME280;59263;48.160;11.752;2023-05-24T03:12:06;95973.88;;;13.36;100.00
71457;BME280;59263;48.160;11.752;2023-05-24T03:14:32;95945.13;;;13.11;100.00
71457;BME280;59263;48.160;11.752;2023-05-24T03:16:57;95971.44;;;13.16;100.00
71457;BME280;59263;48.160;11.752;2023-05-24T03:19:23;95981.50;;;13.11;100.00
71457;BME280;59263;48.160;11.752;2023-05-24T03:21:48;95969.91;;;13.23;100.00
71457;BME280;59263;48.160;11.752;2023-05-24T03:24:13;95976.75;;;13.24;100.00
71457;BME280;59263;48.160;11.752;2023-05-24T03:26:39;95955.00;;;13.07;100.00
71457;BME280;59263;48.160;11.752;2023-05-24T03:29:05;95970.50;;;13.17;100.00
71457;BME280;59263;48.160;11.752;2023-05-24T03:31:31;95958.56;;;13.24;100.00
71457;BME280;59263;48.160;11.752;2023-05-24T03:33:56;95973.75;;;13.19;100.00
71457;BME280;59263;48.160;11.752;2023-05-24T03:36:21;95976.78;;;13.06;100.00
71457;BME280;59263;48.160;11.752;2023-05-24T03:38:46;95955.75;;;12.92;100.00
71457;BME280;59263;48.160;11.752;2023-05-24T03:41:12;95974.56;;;12.94;100.00
71457;BME280;59263;48.160;11.752;2023-05-24T03:43:37;95952.19;;;12.93;100.00
71457;BME280;59263;48.160;11.752;2023-05-24T03:46:02;95975.69;;;13.17;100.00
71457;BME280;59263;48.160;11.752;2023-05-24T03:48:28;95975.28;;;13.04;100.00
71457;BME280;59263;48.160;11.752;2023-05-24T03:50:53;95987.06;;;12.90;100.00
71457;BME280;59263;48.160;11.752;2023-05-24T03:53:19;95994.53;;;12.93;100.00
71457;BME280;59263;48.160;11.752;2023-05-24T03:55:45;95987.94;;;12.99;100.00
71457;BME280;59263;48.160;11.752;2023-05-24T03:58:10;95982.19;;;13.13;100.00
71457;BME280;59263;48.160;11.752;2023-05-24T04:00:36;95978.88;;;13.03;100.00
71457;BME280;59263;48.160;11.752;2023-05-24T04:03:02;95973.34;;;12.98;100.00
71457;BME280;59263;48.160;11.752;2023-05-24T04:05:30;95987.78;;;13.26;100.00
71457;BME280;59263;48.160;11.752;2023-05-24T04:07:56;95985.28;;;13.17;100.00
71457;BME280;59263;48.160;11.752;2023-05-24T04:10:21;95984.38;;;13.00;100.00
71457;BME280;59263;48.160;11.752;2023-05-24T04:12:47;96004.13;;;12.93;100.00
71457;BME280;59263;48.160;11.752;2023-05-24T04:15:12;96000.25;;;12.97;100.00
71457;BME280;59263;48.160;11.752;2023-05-24T04:17:40;95995.53;;;12.92;100.00
71457;BME280;59263;48.160;11.752;2023-05-24T04:20:06;95985.22;;;12.82;100.00
71457;BME280;59263;48.160;11.752;2023-05-24T04:22:33;95990.88;;;12.78;100.00
71457;BME280;59263;48.160;11.752;2023-05-24T04:25:00;95997.63;;;12.89;100.00
71457;BME280;59263;48.160;11.752;2023-05-24T04:27:26;95978.88;;;12.77;100.00
71457;BME280;59263;48.160;11.752;2023-05-24T04:29:52;95996.06;;;13.04;100.00
71457;BME280;59263;48.160;11.752;2023-05-24T04:32:17;96004.38;;;13.07;100.00
71457;BME280;59263;48.160;11.752;2023-05-24T04:34:44;95994.84;;;12.90;100.00
71457;BME280;59263;48.160;11.752;2023-05-24T04:37:10;95999.53;;;12.87;100.00
71457;BME280;59263;48.160;11.752;2023-05-24T04:39:35;96005.06;;;12.83;100.00
71457;BME280;59263;48.160;11.752;2023-05-24T04:42:00;96015.88;;;12.79;100.00
71457;BME280;59263;48.160;11.752;2023-05-24T04:44:26;95983.59;;;12.81;100.00
71457;BME280;59263;48.160;11.752;2023-05-24T04:46:52;96001.38;;;12.68;100.00
71457;BME280;59263;48.160;11.752;2023-05-24T04:49:17;95998.84;;;12.76;100.00
71457;BME280;59263;48.160;11.752;2023-05-24T04:51:43;95997.09;;;12.59;100.00
71457;BME280;59263;48.160;11.752;2023-05-24T04:54:09;95990.28;;;12.84;100.00
71457;BME280;59263;48.160;11.752;2023-05-24T04:56:35;96005.44;;;12.97;100.00
71457;BME280;59263;48.160;11.752;2023-05-24T04:59:02;96006.63;;;12.76;100.00
71457;BME280;59263;48.160;11.752;2023-05-24T05:01:28;95997.88;;;12.77;100.00
71457;BME280;59263;48.160;11.752;2023-05-24T05:03:54;96005.06;;;12.83;100.00
71457;BME280;59263;48.160;11.752;2023-05-24T05:06:19;96002.59;;;12.82;100.00
71457;BME280;59263;48.160;11.752;2023-05-24T05:08:44;96018.56;;;12.87;100.00
71457;BME280;59263;48.160;11.752;2023-05-24T05:11:09;96009.44;;;12.83;100.00
71457;BME280;59263;48.160;11.752;2023-05-24T05:13:35;96015.75;;;12.80;100.00
71457;BME280;59263;48.160;11.752;2023-05-24T05:16:02;96018.28;;;12.72;100.00
71457;BME280;59263;48.160;11.752;2023-05-24T05:18:27;96022.63;;;12.72;100.00
71457;BME280;59263;48.160;11.752;2023-05-24T05:20:52;96022.59;;;12.46;100.00
71457;BME280;59263;48.160;11.752;2023-05-24T05:23:17;96026.63;;;12.40;100.00
71457;BME280;59263;48.160;11.752;2023-05-24T05:25:43;96014.09;;;12.53;100.00
71457;BME280;59263;48.160;11.752;2023-05-24T05:28:08;96024.06;;;12.66;100.00
71457;BME280;59263;48.160;11.752;2023-05-24T05:30:33;96025.00;;;12.57;100.00
71457;BME280;59263;48.160;11.752;2023-05-24T05:32:59;96020.16;;;12.44;100.00
71457;BME280;59263;48.160;11.752;2023-05-24T05:35:24;96018.53;;;12.61;100.00
71457;BME280;59263;48.160;11.752;2023-05-24T05:37:50;96020.59;;;12.57;100.00
71457;BME280;59263;48.160;11.752;2023-05-24T05:40:15;96018.09;;;12.48;100.00
71457;BME280;59263;48.160;11.752;2023-05-24T05:42:40;96028.09;;;12.43;100.00
71457;BME280;59263;48.160;11.752;2023-05-24T05:45:06;96026.00;;;12.64;100.00
71457;BME280;59263;48.160;11.752;2023-05-24T05:47:32;96020.50;;;12.67;100.00
71457;BME280;59263;48.160;11.752;2023-05-24T05:49:57;96013.38;;;12.69;100.00
71457;BME280;59263;48.160;11.752;2023-05-24T05:52:22;96007.47;;;12.59;100.00
71457;BME280;59263;48.160;11.752;2023-05-24T05:54:48;96019.91;;;12.73;100.00
71457;BME280;59263;48.160;11.752;2023-05-24T05:57:13;96008.13;;;12.61;100.00
71457;BME280;59263;48.160;11.752;2023-05-24T05:59:40;96010.34;;;12.56;100.00
71457;BME280;59263;48.160;11.752;2023-05-24T06:02:05;96017.66;;;12.78;100.00
71457;BME280;59263;48.160;11.752;2023-05-24T06:04:31;96004.63;;;12.70;100.00
71457;BME280;59263;48.160;11.752;2023-05-24T06:06:56;96003.72;;;12.79;100.00
71457;BME280;59263;48.160;11.752;2023-05-24T06:09:21;96006.44;;;12.96;100.00
71457;BME280;59263;48.160;11.752;2023-05-24T06:11:47;95997.69;;;12.79;100.00
71457;BME280;59263;48.160;11.752;2023-05-24T06:14:13;96005.22;;;12.90;100.00
71457;BME280;59263;48.160;11.752;2023-05-24T06:16:42;96000.25;;;12.71;100.00
71457;BME280;59263;48.160;11.752;2023-05-24T06:19:10;96002.03;;;12.70;100.00
71457;BME280;59263;48.160;11.752;2023-05-24T06:21:35;95989.78;;;12.80;100.00
71457;BME280;59263;48.160;11.752;2023-05-24T06:24:01;95988.59;;;13.01;100.00
71457;BME280;59263;48.160;11.752;2023-05-24T06:26:27;95988.25;;;12.96;100.00
71457;BME280;59263;48.160;11.752;2023-05-24T06:28:52;95999.56;;;13.13;100.00
71457;BME280;59263;48.160;11.752;2023-05-24T06:31:17;95997.53;;;13.24;100.00
71457;BME280;59263;48.160;11.752;2023-05-24T06:33:43;95998.53;;;13.31;100.00
71457;BME280;59263;48.160;11.752;2023-05-24T06:36:08;95988.00;;;13.15;100.00
71457;BME280;59263;48.160;11.752;2023-05-24T06:38:34;96001.16;;;13.40;100.00
71457;BME280;59263;48.160;11.752;2023-05-24T06:41:00;95998.91;;;13.45;100.00
71457;BME280;59263;48.160;11.752;2023-05-24T06:43:25;95997.09;;;13.37;100.00
71457;BME280;59263;48.160;11.752;2023-05-24T06:45:51;95997.28;;;13.44;100.00
71457;BME280;59263;48.160;11.752;2023-05-24T06:48:16;96005.09;;;13.44;100.00
71457;BME280;59263;48.160;11.752;2023-05-24T06:50:41;96009.31;;;13.45;100.00
71457;BME280;59263;48.160;11.752;2023-05-24T06:53:07;96006.41;;;13.48;100.00
71457;BME280;59263;48.160;11.752;2023-05-24T06:55:32;96008.09;;;13.65;100.00
71457;BME280;59263;48.160;11.752;2023-05-24T06:57:58;95994.81;;;13.85;100.00
71457;BME280;59263;48.160;11.752;2023-05-24T07:00:23;95985.09;;;13.95;100.00
71457;BME280;59263;48.160;11.752;2023-05-24T07:02:49;95982.69;;;14.10;100.00
71457;BME280;59263;48.160;11.752;2023-05-24T07:05:14;95984.78;;;13.98;100.00
71457;BME280;59263;48.160;11.752;2023-05-24T07:07:41;95985.75;;;14.05;100.00
71457;BME280;59263;48.160;11.752;2023-05-24T07:10:08;96001.72;;;14.18;100.00
71457;BME280;59263;48.160;11.752;2023-05-24T07:12:35;95993.28;;;14.49;100.00
71457;BME280;59263;48.160;11.752;2023-05-24T07:15:00;95993.94;;;14.43;100.00
71457;BME280;59263;48.160;11.752;2023-05-24T07:17:26;95999.16;;;14.51;100.00
71457;BME280;59263;48.160;11.752;2023-05-24T07:19:51;95997.72;;;14.65;100.00
71457;BME280;59263;48.160;11.752;2023-05-24T07:22:16;96006.97;;;14.51;100.00
71457;BME280;59263;48.160;11.752;2023-05-24T07:24:42;95992.78;;;14.29;100.00
71457;BME280;59263;48.160;11.752;2023-05-24T07:27:07;96007.59;;;14.45;100.00
71457;BME280;59263;48.160;11.752;2023-05-24T07:29:33;95993.94;;;14.43;100.00
71457;BME280;59263;48.160;11.752;2023-05-24T07:31:58;96007.66;;;14.61;100.00
71457;BME280;59263;48.160;11.752;2023-05-24T07:34:25;95991.97;;;14.45;100.00
71457;BME280;59263;48.160;11.752;2023-05-24T07:36:52;95986.16;;;14.51;100.00
71457;BME280;59263;48.160;11.752;2023-05-24T07:39:17;95995.59;;;14.52;100.00
71457;BME280;59263;48.160;11.752;2023-05-24T07:41:43;96007.78;;;14.51;100.00
71457;BME280;59263;48.160;11.752;2023-05-24T07:44:08;96013.16;;;14.58;100.00
71457;BME280;59263;48.160;11.752;2023-05-24T07:46:34;96004.56;;;14.58;100.00
71457;BME280;59263;48.160;11.752;2023-05-24T07:48:59;95997.03;;;14.46;100.00
71457;BME280;59263;48.160;11.752;2023-05-24T07:51:25;96002.09;;;14.64;100.00
71457;BME280;59263;48.160;11.752;2023-05-24T07:53:50;95998.84;;;14.70;100.00
71457;BME280;59263;48.160;11.752;2023-05-24T07:56:16;96010.53;;;14.83;100.00
71457;BME280;59263;48.160;11.752;2023-05-24T07:58:42;95994.91;;;14.83;100.00
71457;BME280;59263;48.160;11.752;2023-05-24T08:01:11;96002.41;;;14.77;100.00
71457;BME280;59263;48.160;11.752;2023-05-24T08:03:37;96002.09;;;14.81;100.00
71457;BME280;59263;48.160;11.752;2023-05-24T08:06:03;96002.91;;;14.81;100.00
71457;BME280;59263;48.160;11.752;2023-05-24T08:08:29;96012.50;;;14.81;100.00
71457;BME280;59263;48.160;11.752;2023-05-24T08:10:54;96005.97;;;14.85;100.00
71457;BME280;59263;48.160;11.752;2023-05-24T08:13:20;96008.28;;;14.80;100.00
71457;BME280;59263;48.160;11.752;2023-05-24T08:15:45;96006.66;;;14.70;100.00
71457;BME280;59263;48.160;11.752;2023-05-24T08:18:10;96008.59;;;14.85;100.00
71457;BME280;59263;48.160;11.752;2023-05-24T08:20:36;95996.19;;;14.87;100.00
71457;BME280;59263;48.160;11.752;2023-05-24T08:23:01;95996.03;;;14.96;100.00
71457;BME280;59263;48.160;11.752;2023-05-24T08:25:27;96000.09;;;14.99;100.00
71457;BME280;59263;48.160;11.752;2023-05-24T08:27:52;95997.19;;;15.02;100.00
71457;BME280;59263;48.160;11.752;2023-05-24T08:30:17;96003.03;;;14.96;100.00
71457;BME280;59263;48.160;11.752;2023-05-24T08:32:44;95991.47;;;15.07;100.00
71457;BME280;59263;48.160;11.752;2023-05-24T08:35:09;95992.25;;;15.07;100.00
71457;BME280;59263;48.160;11.752;2023-05-24T08:37:35;95987.06;;;15.07;100.00
71457;BME280;59263;48.160;11.752;2023-05-24T08:40:00;95995.03;;;15.14;100.00
71457;BME280;59263;48.160;11.752;2023-05-24T08:42:27;95996.13;;;15.19;100.00
71457;BME280;59263;48.160;11.752;2023-05-24T08:44:58;96010.47;;;15.23;100.00
71457;BME280;59263;48.160;11.752;2023-05-24T08:47:28;96007.56;;;15.18;100.00
71457;BME280;59263;48.160;11.752;2023-05-24T08:49:54;96008.06;;;15.14;100.00
71457;BME280;59263;48.160;11.752;2023-05-24T08:52:20;96009.19;;;15.11;100.00
71457;BME280;59263;48.160;11.752;2023-05-24T08:54:48;96002.50;;;15.09;100.00
71457;BME280;59263;48.160;11.752;2023-05-24T08:57:14;96008.69;;;15.24;100.00
71457;BME280;59263;48.160;11.752;2023-05-24T08:59:40;96009.06;;;15.52;100.00
71457;BME280;59263;48.160;11.752;2023-05-24T09:02:08;96011.34;;;15.55;100.00
71457;BME280;59263;48.160;11.752;2023-05-24T09:04:37;95996.03;;;15.52;100.00
71457;BME280;59263;48.160;11.752;2023-05-24T09:07:05;96006.47;;;15.52;100.00
71457;BME280;59263;48.160;11.752;2023-05-24T09:09:33;96014.59;;;15.57;100.00
71457;BME280;59263;48.160;11.752;2023-05-24T09:12:01;96017.88;;;15.51;100.00
71457;BME280;59263;48.160;11.752;2023-05-24T09:14:28;96004.88;;;15.35;100.00
71457;BME280;59263;48.160;11.752;2023-05-24T09:16:54;96009.28;;;15.34;100.00
71457;BME280;59263;48.160;11.752;2023-05-24T09:19:20;96019.53;;;15.44;100.00
71457;BME280;59263;48.160;11.752;2023-05-24T09:21:46;96014.47;;;15.42;100.00
71457;BME280;59263;48.160;11.752;2023-05-24T09:24:14;96015.13;;;15.44;100.00
71457;BME280;59263;48.160;11.752;2023-05-24T09:26:40;96025.75;;;15.35;100.00
71457;BME280;59263;48.160;11.752;2023-05-24T09:29:06;96028.06;;;15.30;100.00
71457;BME280;59263;48.160;11.752;2023-05-24T09:31:33;96026.91;;;15.32;100.00
71457;BME280;59263;48.160;11.752;2023-05-24T09:33:59;96020.44;;;15.12;100.00
71457;BME280;59263;48.160;11.752;2023-05-24T09:36:26;96026.81;;;15.09;100.00
71457;BME280;59263;48.160;11.752;2023-05-24T09:39:14;96025.81;;;15.10;100.00
71457;BME280;59263;48.160;11.752;2023-05-24T09:41:42;96015.41;;;15.02;100.00
71457;BME280;59263;48.160;11.752;2023-05-24T09:44:12;96029.44;;;14.85;100.00
71457;BME280;59263;48.160;11.752;2023-05-24T09:46:37;96029.13;;;14.88;100.00
71457;BME280;59263;48.160;11.752;2023-05-24T09:49:03;96034.81;;;14.83;100.00
71457;BME280;59263;48.160;11.752;2023-05-24T09:51:30;96032.38;;;14.73;100.00
71457;BME280;59263;48.160;11.752;2023-05-24T09:53:57;96038.25;;;14.84;100.00
71457;BME280;59263;48.160;11.752;2023-05-24T09:56:25;96037.91;;;14.79;100.00
71457;BME280;59263;48.160;11.752;2023-05-24T09:58:51;96030.06;;;14.79;100.00
71457;BME280;59263;48.160;11.752;2023-05-24T10:01:17;96029.75;;;14.82;100.00
71457;BME280;59263;48.160;11.752;2023-05-24T10:03:56;96030.41;;;14.84;100.00
71457;BME280;59263;48.160;11.752;2023-05-24T10:06:22;96034.66;;;14.76;100.00
71457;BME280;59263;48.160;11.752;2023-05-24T10:08:49;96026.81;;;14.93;100.00
71457;BME280;59263;48.160;11.752;2023-05-24T10:11:14;96026.16;;;14.83;100.00
71457;BME280;59263;48.160;11.752;2023-05-24T10:13:40;96034.97;;;14.90;100.00
71457;BME280;59263;48.160;11.752;2023-05-24T10:16:06;96033.66;;;14.77;100.00
71457;BME280;59263;48.160;11.752;2023-05-24T10:18:31;96038.25;;;14.84;100.00
71457;BME280;59263;48.160;11.752;2023-05-24T10:20:57;96047.00;;;14.83;100.00
71457;BME280;59263;48.160;11.752;2023-05-24T10:23:23;96037.72;;;14.64;100.00
71457;BME280;59263;48.160;11.752;2023-05-24T10:25:59;96036.28;;;14.69;100.00
71457;BME280;59263;48.160;11.752;2023-05-24T10:28:27;96043.91;;;14.71;100.00
71457;BME280;59263;48.160;11.752;2023-05-24T10:31:04;96031.25;;;14.76;100.00
71457;BME280;59263;48.160;11.752;2023-05-24T10:33:35;96039.19;;;14.74;100.00
71457;BME280;59263;48.160;11.752;2023-05-24T10:36:03;96046.03;;;14.67;100.00
71457;BME280;59263;48.160;11.752;2023-05-24T10:38:29;96040.50;;;14.62;100.00
71457;BME280;59263;48.160;11.752;2023-05-24T10:40:54;96054.03;;;14.58;100.00
71457;BME280;59263;48.160;11.752;2023-05-24T10:43:20;96046.84;;;14.51;100.00
71457;BME280;59263;48.160;11.752;2023-05-24T10:45:49;96055.94;;;14.39;100.00
71457;BME280;59263;48.160;11.752;2023-05-24T10:50:41;96045.38;;;14.57;100.00
71457;BME280;59263;48.160;11.752;2023-05-24T10:55:50;96032.53;;;14.64;100.00
71457;BME280;59263;48.160;11.752;2023-05-24T10:58:17;96046.03;;;14.59;100.00
71457;BME280;59263;48.160;11.752;2023-05-24T11:00:43;96051.88;;;14.53;100.00
71457;BME280;59263;48.160;11.752;2023-05-24T11:03:09;96042.91;;;14.47;100.00
71457;BME280;59263;48.160;11.752;2023-05-24T11:08:32;96049.31;;;14.61;100.00
71457;BME280;59263;48.160;11.752;2023-05-24T11:11:06;96054.66;;;14.68;100.00
71457;BME280;59263;48.160;11.752;2023-05-24T11:13:35;96042.94;;;14.72;100.00
71457;BME280;59263;48.160;11.752;2023-05-24T11:16:01;96046.34;;;14.64;100.00
71457;BME280;59263;48.160;11.752;2023-05-24T11:18:26;96043.44;;;14.67;100.00
71457;BME280;59263;48.160;11.752;2023-05-24T11:20:52;96042.13;;;14.63;100.00
71457;BME280;59263;48.160;11.752;2023-05-24T11:23:18;96048.63;;;14.67;100.00
71457;BME280;59263;48.160;11.752;2023-05-24T11:25:45;96035.13;;;14.64;100.00
71457;BME280;59263;48.160;11.752;2023-05-24T11:28:11;96045.72;;;14.70;100.00
71457;BME280;59263;48.160;11.752;2023-05-24T11:30:44;96044.09;;;14.69;100.00
71457;BME280;59263;48.160;11.752;2023-05-24T11:33:21;96046.84;;;14.68;100.00
71457;BME280;59263;48.160;11.752;2023-05-24T11:35:50;96038.41;;;14.58;100.00
71457;BME280;59263;48.160;11.752;2023-05-24T11:38:16;96043.44;;;14.67;100.00
71457;BME280;59263;48.160;11.752;2023-05-24T11:40:44;96034.94;;;14.49;100.00
71457;BME280;59263;48.160;11.752;2023-05-24T11:43:11;96035.63;;;14.51;100.00
71457;BME280;59263;48.160;11.752;2023-05-24T11:45:40;96032.03;;;14.60;100.00
71457;BME280;59263;48.160;11.752;2023-05-24T11:48:07;96034.59;;;14.36;100.00
71457;BME280;59263;48.160;11.752;2023-05-24T11:50:36;96042.44;;;14.60;100.00
71457;BME280;59263;48.160;11.752;2023-05-24T11:53:02;96043.06;;;14.46;100.00
71457;BME280;59263;48.160;11.752;2023-05-24T11:55:28;96036.72;;;14.40;100.00
71457;BME280;59263;48.160;11.752;2023-05-24T11:57:57;96033.81;;;14.35;100.00
71457;BME280;59263;48.160;11.752;2023-05-24T12:00:26;96037.56;;;14.57;100.00
71457;BME280;59263;48.160;11.752;2023-05-24T12:02:55;96033.34;;;14.64;100.00
71457;BME280;59263;48.160;11.752;2023-05-24T12:05:20;96034.97;;;14.65;100.00
71457;BME280;59263;48.160;11.752;2023-05-24T12:07:46;96040.19;;;14.82;100.00
71457;BME280;59263;48.160;11.752;2023-05-24T12:10:14;96032.88;;;14.69;100.00
71457;BME280;59263;48.160;11.752;2023-05-24T12:12:45;96032.34;;;14.90;100.00
71457;BME280;59263;48.160;11.752;2023-05-24T12:15:11;96026.16;;;14.83;100.00
71457;BME280;59263;48.160;11.752;2023-05-24T12:17:37;96027.16;;;14.82;100.00
71457;BME280;59263;48.160;11.752;2023-05-24T12:20:03;96034.66;;;14.85;100.00
71457;BME280;59263;48.160;11.752;2023-05-24T12:22:30;96044.91;;;14.94;100.00
71457;BME280;59263;48.160;11.752;2023-05-24T12:24:56;96047.97;;;14.90;100.00
71457;BME280;59263;48.160;11.752;2023-05-24T12:27:26;96030.91;;;14.95;100.00
71457;BME280;59263;48.160;11.752;2023-05-24T12:29:51;96040.84;;;14.92;100.00
71457;BME280;59263;48.160;11.752;2023-05-24T12:32:17;96052.06;;;14.92;100.00
71457;BME280;59263;48.160;11.752;2023-05-24T12:34:43;96050.59;;;14.82;100.00
71457;BME280;59263;48.160;11.752;2023-05-24T12:37:10;96030.09;;;14.62;100.00
71457;BME280;59263;48.160;11.752;2023-05-24T12:39:36;96038.22;;;14.59;100.00
71457;BME280;59263;48.160;11.752;2023-05-24T12:42:03;96030.03;;;14.46;100.00
71457;BME280;59263;48.160;11.752;2023-05-24T12:44:32;96031.72;;;14.63;100.00
71457;BME280;59263;48.160;11.752;2023-05-24T12:46:58;96038.53;;;14.64;100.00
71457;BME280;59263;48.160;11.752;2023-05-24T12:49:24;96047.69;;;14.68;100.00
71457;BME280;59263;48.160;11.752;2023-05-24T12:51:50;96042.78;;;14.73;100.00
71457;BME280;59263;48.160;11.752;2023-05-24T12:54:18;96052.88;;;14.76;100.00
71457;BME280;59263;48.160;11.752;2023-05-24T12:56:43;96053.19;;;14.90;100.00
71457;BME280;59263;48.160;11.752;2023-05-24T12:59:09;96045.03;;;15.01;100.00
71457;BME280;59263;48.160;11.752;2023-05-24T13:01:34;96051.06;;;15.01;100.00
71457;BME280;59263;48.160;11.752;2023-05-24T13:04:00;96036.41;;;15.09;100.00
71457;BME280;59263;48.160;11.752;2023-05-24T13:06:25;96035.25;;;15.11;100.00